createdAt,value
2022-10-05T01:58:45.417Z,59.00
2022-10-05T02:01:18.385Z,59.04
2022-10-05T02:03:57.200Z,59.05
2022-10-05T02:06:28.038Z,60.15
2022-10-05T02:09:04.947Z,60.62
2022-10-05T02:11:33.358Z,60.36
2022-10-05T02:14:07.556Z,60.37
2022-10-05T02:16:46.939Z,59.87
2022-10-05T02:19:34.350Z,61.61
2022-10-05T02:22:09.098Z,60.89
2022-10-05T02:24:44.607Z,60.75
2022-10-05T02:27:17.493Z,60.26
2022-10-05T02:29:48.303Z,60.66
2022-10-05T02:32:24.019Z,60.91
2022-10-05T02:34:50.919Z,61.49
2022-10-05T02:37:38.847Z,61.48
2022-10-05T02:40:05.406Z,60.47
2022-10-05T02:43:04.361Z,61.10
2022-10-05T02:45:33.706Z,62.21
2022-10-05T02:48:23.210Z,61.99
2022-10-05T02:50:59.152Z,60.72
2022-10-05T02:54:03.934Z,60.86
2022-10-05T02:56:42.072Z,61.62
2022-10-05T02:59:26.432Z,60.66
2022-10-05T03:02:00.573Z,62.44
2022-10-05T03:04:35.927Z,61.84
2022-10-05T03:07:07.836Z,62.76
2022-10-05T03:09:42.381Z,62.74
2022-10-05T03:12:30.932Z,62.34
2022-10-05T03:15:11.134Z,61.83
2022-10-05T03:18:07.350Z,61.80
2022-10-05T03:20:44.207Z,61.73
2022-10-05T03:23:25.190Z,62.76
2022-10-05T03:25:54.483Z,62.66
2022-10-05T03:28:31.989Z,61.90
2022-10-05T03:31:04.879Z,61.87
2022-10-05T03:33:34.395Z,61.66
2022-10-05T03:36:25.187Z,61.69
2022-10-05T03:39:10.711Z,61.73
2022-10-05T03:41:42.712Z,62.66
2022-10-05T03:44:25.278Z,61.98
2022-10-05T03:46:54.798Z,61.44
2022-10-05T03:49:46.076Z,61.55
2022-10-05T03:52:12.672Z,62.76
2022-10-05T03:54:45.859Z,62.36
2022-10-05T03:57:23.615Z,61.81
2022-10-05T04:00:04.895Z,61.28
2022-10-05T04:02:37.119Z,61.42
2022-10-05T04:05:19.147Z,61.57
2022-10-05T04:07:52.228Z,61.42
2022-10-05T04:10:43.190Z,62.22
2022-10-05T04:13:21.564Z,61.95
2022-10-05T04:16:12.449Z,61.25
2022-10-05T04:18:56.438Z,60.86
2022-10-05T04:21:31.388Z,60.64
2022-10-05T04:24:14.503Z,60.72
2022-10-05T04:26:50.728Z,60.71
2022-10-05T04:29:41.447Z,60.92
2022-10-05T04:32:10.731Z,60.93
2022-10-05T04:34:40.021Z,61.94
2022-10-05T04:37:18.239Z,61.64
2022-10-05T04:40:01.568Z,61.40
2022-10-05T04:42:40.275Z,60.83
2022-10-05T04:45:39.354Z,60.87
2022-10-05T04:48:22.550Z,62.06
2022-10-05T04:51:11.971Z,61.24
2022-10-05T04:54:05.171Z,61.79
2022-10-05T04:56:46.280Z,61.73
2022-10-05T04:59:34.587Z,61.11
2022-10-05T05:02:23.040Z,60.73
2022-10-05T05:05:01.557Z,60.99
2022-10-05T05:07:33.899Z,61.54
2022-10-05T05:10:19.652Z,61.79
2022-10-05T05:12:49.018Z,61.56
2022-10-05T05:15:18.195Z,62.20
2022-10-05T05:18:06.070Z,61.74
2022-10-05T05:20:47.891Z,62.34
2022-10-05T05:23:26.658Z,61.52
2022-10-05T05:26:19.251Z,61.80
2022-10-05T05:29:23.035Z,61.98
2022-10-05T05:31:54.014Z,62.07
2022-10-05T05:34:39.348Z,61.57
2022-10-05T05:37:32.184Z,62.06
2022-10-05T05:40:16.480Z,62.05
2022-10-05T05:43:20.621Z,62.28
2022-10-05T05:46:02.060Z,62.17
2022-10-05T05:48:41.344Z,62.50
2022-10-05T05:51:14.210Z,63.47
2022-10-05T05:53:44.509Z,62.89
2022-10-05T05:56:17.662Z,63.23
2022-10-05T05:58:54.767Z,63.01
2022-10-05T06:01:34.011Z,63.65
2022-10-05T06:04:13.231Z,64.03
2022-10-05T06:06:44.819Z,63.48
2022-10-05T06:09:24.662Z,64.40
2022-10-05T06:11:53.531Z,64.56
2022-10-05T06:14:44.689Z,64.49
2022-10-05T06:17:18.403Z,64.73
2022-10-05T06:19:47.126Z,64.55
2022-10-05T06:22:22.432Z,65.51
2022-10-05T06:25:12.953Z,65.04
2022-10-05T06:28:01.759Z,68.10
2022-10-05T06:30:58.578Z,69.60
2022-10-05T06:33:52.325Z,68.22
2022-10-05T06:36:37.575Z,67.90
2022-10-05T06:39:22.351Z,68.47
2022-10-05T06:42:04.075Z,69.88
2022-10-05T06:44:39.504Z,72.90
2022-10-05T06:47:21.910Z,73.45
2022-10-05T06:50:13.368Z,70.84
2022-10-05T06:52:57.890Z,70.81
2022-10-05T06:55:30.791Z,71.03
2022-10-05T06:58:19.187Z,70.71
2022-10-05T07:01:20.136Z,70.37
2022-10-05T07:03:58.644Z,71.38
2022-10-05T07:06:57.524Z,71.18
2022-10-05T07:09:41.232Z,70.39
2022-10-05T07:12:22.859Z,69.84
2022-10-05T07:14:56.776Z,69.93
2022-10-05T07:17:23.307Z,69.26
2022-10-05T07:20:16.377Z,69.46
2022-10-05T07:22:54.964Z,68.17
2022-10-05T07:25:30.623Z,68.40
2022-10-05T07:28:05.529Z,67.69
2022-10-05T07:30:45.814Z,67.73
2022-10-05T07:33:37.758Z,68.63
2022-10-05T07:36:31.150Z,69.48
2022-10-05T07:39:19.814Z,70.55
2022-10-05T07:41:56.979Z,68.88
2022-10-05T07:44:33.360Z,69.70
2022-10-05T07:47:15.742Z,69.50
2022-10-05T07:49:59.660Z,67.88
2022-10-05T07:52:32.385Z,68.15
2022-10-05T07:55:19.558Z,66.24
2022-10-05T07:57:57.950Z,66.51
2022-10-05T08:00:27.593Z,66.07
2022-10-05T08:03:10.162Z,64.81
2022-10-05T08:05:41.813Z,66.07
2022-10-05T08:08:13.180Z,64.48
2022-10-05T08:10:50.050Z,63.30
2022-10-05T08:13:33.572Z,64.32
2022-10-05T08:16:04.592Z,62.56
2022-10-05T08:18:56.802Z,62.27
2022-10-05T08:21:31.010Z,61.88
2022-10-05T08:24:30.751Z,61.98
2022-10-05T08:27:32.310Z,61.57
2022-10-05T08:30:01.940Z,61.03
2022-10-05T08:32:35.651Z,61.81
2022-10-05T08:35:37.988Z,58.80
2022-10-05T08:38:32.730Z,58.25
2022-10-05T08:41:33.157Z,58.99
2022-10-05T08:44:07.797Z,57.63
2022-10-05T08:47:11.767Z,56.65
2022-10-05T08:49:47.932Z,55.04
2022-10-05T08:52:43.731Z,56.63
2022-10-05T08:55:10.276Z,56.48
2022-10-05T08:57:48.683Z,56.87
2022-10-05T09:00:18.398Z,54.39
2022-10-05T09:03:23.455Z,54.87
2022-10-05T09:06:10.702Z,52.84
2022-10-05T09:08:55.618Z,52.69
2022-10-05T09:11:37.259Z,52.28
2022-10-05T09:14:56.426Z,52.04
2022-10-05T09:17:44.717Z,51.36
2022-10-05T09:20:15.157Z,52.34
2022-10-05T09:23:25.126Z,51.99
2022-10-05T09:26:00.682Z,51.90
2022-10-05T09:28:55.789Z,51.95
2022-10-05T09:31:40.997Z,49.88
2022-10-05T09:34:26.079Z,49.51
2022-10-05T09:37:29.674Z,52.90
2022-10-05T09:40:30.155Z,51.02
2022-10-05T09:43:20.867Z,51.23
2022-10-05T09:46:02.845Z,52.50
2022-10-05T09:48:41.674Z,52.55
2022-10-05T09:51:27.084Z,53.36
2022-10-05T09:54:33.697Z,51.83
2022-10-05T09:57:15.219Z,48.45
2022-10-05T10:00:03.264Z,50.42
2022-10-05T10:02:52.447Z,49.25
2022-10-05T10:05:51.342Z,49.22
2022-10-05T10:08:25.319Z,48.42
2022-10-05T10:10:56.798Z,49.07
2022-10-05T10:13:30.032Z,48.27
2022-10-05T10:16:02.516Z,48.34
2022-10-05T10:18:50.600Z,46.76
2022-10-05T10:21:23.262Z,47.34
2022-10-05T10:24:14.832Z,45.18
2022-10-05T10:27:02.866Z,44.91
2022-10-05T10:30:03.737Z,45.71
2022-10-05T10:32:42.479Z,46.36
2022-10-05T10:35:44.895Z,43.61
2022-10-05T10:38:40.091Z,43.27
2022-10-05T10:41:31.480Z,43.31
2022-10-05T10:44:22.721Z,43.05
2022-10-05T10:47:28.188Z,41.62
2022-10-05T10:50:05.084Z,43.19
2022-10-05T10:52:40.699Z,44.58
2022-10-05T10:55:35.457Z,43.33
2022-10-05T10:58:23.098Z,43.44
2022-10-05T11:01:24.475Z,44.77
2022-10-05T11:04:21.992Z,44.99
2022-10-05T11:07:26.167Z,43.23
2022-10-05T11:10:20.106Z,45.08
2022-10-05T11:12:58.663Z,43.81
2022-10-05T11:16:02.169Z,44.16
2022-10-05T11:18:47.212Z,43.00
2022-10-05T11:21:55.419Z,44.49
2022-10-05T11:24:38.731Z,43.16
2022-10-05T11:27:16.337Z,44.29
2022-10-05T11:30:04.303Z,44.89
2022-10-05T11:33:03.392Z,43.38
2022-10-05T11:35:34.246Z,41.34
2022-10-05T11:38:06.511Z,40.65
2022-10-05T11:40:47.746Z,43.29
2022-10-05T11:43:32.806Z,41.71
2022-10-05T11:46:14.996Z,43.61
2022-10-05T11:49:01.927Z,41.22
2022-10-05T11:51:44.175Z,41.52
2022-10-05T11:57:34.992Z,43.61
2022-10-05T12:00:10.979Z,42.66
2022-10-05T12:03:14.333Z,43.05
2022-10-05T12:06:05.871Z,43.54
2022-10-05T12:08:53.722Z,43.86
2022-10-05T12:11:25.935Z,44.26
2022-10-05T12:13:58.606Z,44.49
2022-10-05T12:16:34.310Z,44.45
2022-10-05T12:19:18.622Z,45.18
2022-10-05T12:21:52.240Z,42.82
2022-10-05T12:24:30.455Z,44.37
2022-10-05T12:27:12.057Z,43.15
2022-10-05T12:29:49.792Z,43.16
2022-10-05T12:32:22.819Z,43.23
2022-10-05T12:35:30.013Z,42.93
2022-10-05T12:38:15.692Z,43.93
2022-10-05T12:40:52.894Z,43.31
2022-10-05T12:43:42.669Z,43.60
2022-10-05T12:46:17.869Z,43.93
2022-10-05T12:48:59.754Z,44.17
2022-10-05T12:51:52.147Z,43.49
2022-10-05T12:54:49.573Z,43.15
2022-10-05T12:57:18.960Z,44.34
2022-10-05T13:00:02.359Z,44.41
2022-10-05T13:03:01.240Z,44.47
2022-10-05T13:05:35.887Z,44.01
2022-10-05T13:08:14.482Z,44.07
2022-10-05T13:11:14.777Z,44.89
2022-10-05T13:14:16.566Z,44.58
2022-10-05T13:16:54.726Z,45.21
2022-10-05T13:19:24.723Z,45.91
2022-10-05T13:22:14.634Z,45.79
2022-10-05T13:25:07.312Z,45.17
2022-10-05T13:28:00.048Z,45.51
2022-10-05T13:30:27.299Z,45.09
2022-10-05T13:33:05.109Z,43.65
2022-10-05T13:36:04.998Z,45.83
2022-10-05T13:38:58.582Z,45.88
2022-10-05T13:41:34.392Z,44.57
2022-10-05T13:44:28.937Z,44.99
2022-10-05T13:47:21.005Z,46.18
2022-10-05T13:50:03.534Z,45.42
2022-10-05T13:52:51.250Z,45.05
2022-10-05T13:55:33.114Z,44.18
2022-10-05T13:58:08.665Z,44.89
2022-10-05T14:00:53.143Z,45.02
2022-10-05T14:03:40.039Z,44.62
2022-10-05T14:06:14.575Z,43.55
2022-10-05T14:08:51.820Z,44.01
2022-10-05T14:11:26.604Z,44.78
2022-10-05T14:14:10.490Z,45.14
2022-10-05T14:16:57.618Z,45.99
2022-10-05T14:19:24.312Z,45.76
2022-10-05T14:22:01.576Z,46.96
2022-10-05T14:24:46.127Z,46.51
2022-10-05T14:27:27.857Z,47.61
2022-10-05T14:29:56.476Z,48.55
2022-10-05T14:32:25.163Z,49.85
2022-10-05T14:34:57.728Z,49.10
2022-10-05T14:37:31.204Z,49.04
2022-10-05T14:40:21.271Z,49.80
2022-10-05T14:42:48.370Z,49.27
2022-10-05T14:45:21.639Z,51.07
2022-10-05T14:47:52.641Z,50.07
2022-10-05T14:50:26.215Z,49.56
2022-10-05T14:53:11.145Z,50.47
2022-10-05T14:55:47.003Z,49.89
2022-10-05T14:58:33.163Z,49.62
2022-10-05T15:01:10.185Z,49.27
2022-10-05T15:04:14.648Z,49.35
2022-10-05T15:07:04.446Z,49.55
2022-10-05T15:09:55.844Z,49.56
2022-10-05T15:12:32.003Z,49.95
2022-10-05T15:15:39.805Z,50.26
2022-10-05T15:18:16.798Z,50.34
2022-10-05T15:20:46.002Z,49.89
2022-10-05T15:23:24.940Z,49.49
2022-10-05T15:26:07.831Z,49.99
2022-10-05T15:28:48.416Z,49.70
2022-10-05T15:31:46.714Z,50.19
2022-10-05T15:34:36.196Z,50.27
2022-10-05T15:37:21.135Z,49.95
2022-10-05T15:39:59.208Z,49.79
2022-10-05T15:42:38.370Z,49.56
2022-10-05T15:45:30.084Z,49.71
2022-10-05T15:48:03.060Z,49.53
2022-10-05T15:50:32.466Z,49.69
2022-10-05T15:53:14.561Z,49.45
2022-10-05T15:55:59.879Z,49.84
2022-10-05T15:59:00.033Z,49.87
2022-10-05T16:01:43.578Z,49.49
2022-10-05T16:04:51.987Z,49.63
2022-10-05T16:07:47.737Z,49.27
2022-10-05T16:10:21.612Z,49.76
2022-10-05T16:13:19.153Z,49.41
2022-10-05T16:16:08.065Z,50.16
2022-10-05T16:19:12.604Z,49.73
2022-10-05T16:22:06.754Z,49.63
2022-10-05T16:25:08.939Z,49.53
2022-10-05T16:28:21.820Z,49.90
2022-10-05T16:30:58.755Z,49.82
2022-10-05T16:33:56.386Z,49.60
2022-10-05T16:36:41.040Z,50.24
2022-10-05T16:39:25.648Z,50.07
2022-10-05T16:42:05.479Z,50.35
2022-10-05T16:45:19.965Z,50.16
2022-10-05T16:48:13.487Z,50.45
2022-10-05T16:50:43.171Z,49.91
2022-10-05T16:53:43.905Z,50.62
2022-10-05T16:56:18.018Z,50.72
2022-10-05T16:59:32.135Z,50.19
2022-10-05T17:02:23.614Z,50.19
2022-10-05T17:05:20.101Z,50.32
2022-10-05T17:07:58.760Z,50.55
2022-10-05T17:10:35.916Z,50.99
2022-10-05T17:13:16.289Z,50.55
2022-10-05T17:16:03.445Z,50.79
2022-10-05T17:18:39.239Z,51.10
2022-10-05T17:21:11.535Z,50.75
2022-10-05T17:23:55.165Z,50.68
2022-10-05T17:27:02.505Z,50.97
2022-10-05T17:29:51.412Z,52.27
2022-10-05T17:32:17.928Z,51.57
2022-10-05T17:35:00.544Z,51.12
2022-10-05T17:37:27.079Z,51.35
2022-10-05T17:39:57.811Z,51.06
2022-10-05T17:42:30.167Z,50.83
2022-10-05T17:45:12.159Z,50.78
2022-10-05T17:48:34.387Z,50.51
2022-10-05T17:51:19.467Z,51.33
2022-10-05T17:54:05.763Z,51.65
2022-10-05T17:56:55.619Z,52.46
2022-10-05T17:59:55.638Z,52.06
2022-10-05T18:02:38.515Z,51.60
2022-10-05T18:05:05.122Z,52.94
2022-10-05T18:07:33.962Z,53.13
2022-10-05T18:10:09.670Z,52.11
2022-10-05T18:12:36.200Z,52.80
2022-10-05T18:15:22.294Z,52.99
2022-10-05T18:17:58.147Z,52.58
2022-10-05T18:20:25.551Z,54.16
2022-10-05T18:23:06.128Z,52.99
2022-10-05T18:25:52.983Z,54.58
2022-10-05T18:29:13.958Z,53.29
2022-10-05T18:32:01.278Z,54.17
2022-10-05T18:34:30.582Z,55.21
2022-10-05T18:37:12.297Z,55.82
2022-10-05T18:39:58.283Z,55.35
2022-10-05T18:43:06.367Z,55.49
2022-10-05T18:45:51.471Z,55.05
2022-10-05T18:48:39.867Z,54.41
2022-10-05T18:51:41.379Z,53.86
2022-10-05T18:54:25.147Z,54.44
2022-10-05T18:56:53.202Z,55.28
2022-10-05T18:59:49.498Z,55.04
2022-10-05T19:02:25.024Z,54.26
2022-10-05T19:05:47.025Z,55.73
2022-10-05T19:08:34.326Z,55.02
2022-10-05T19:11:25.852Z,55.00
2022-10-05T19:14:24.483Z,56.30
2022-10-05T19:17:09.644Z,56.18
2022-10-05T19:19:57.742Z,57.99
2022-10-05T19:22:51.447Z,57.35
2022-10-05T19:25:20.993Z,55.04
2022-10-05T19:27:59.719Z,56.52
2022-10-05T19:30:35.276Z,56.78
2022-10-05T19:33:26.704Z,56.83
2022-10-05T19:36:11.836Z,57.67
2022-10-05T19:38:57.823Z,60.40
2022-10-05T19:41:55.306Z,57.55
2022-10-05T19:44:46.614Z,58.90
2022-10-05T19:47:31.681Z,60.80
2022-10-05T19:50:01.987Z,60.52
2022-10-05T19:52:43.405Z,62.92
2022-10-05T19:55:26.440Z,59.51
2022-10-05T19:57:55.970Z,59.19
2022-10-05T20:00:31.375Z,58.03
2022-10-05T20:03:12.155Z,58.36
2022-10-05T20:05:40.058Z,58.46
2022-10-05T20:08:07.599Z,58.08
2022-10-05T20:10:34.393Z,58.37
2022-10-05T20:13:04.051Z,57.97
2022-10-05T20:15:54.933Z,58.48
2022-10-05T20:18:55.375Z,57.84
2022-10-05T20:21:46.378Z,57.32
2022-10-05T20:24:48.961Z,58.69
2022-10-05T20:27:42.951Z,58.55
2022-10-05T20:30:11.963Z,58.74
2022-10-05T20:32:38.673Z,58.20
2022-10-05T20:35:07.008Z,59.07
2022-10-05T20:37:33.774Z,59.19
2022-10-05T20:40:00.418Z,59.35
2022-10-05T20:42:26.966Z,59.63
2022-10-05T20:44:56.907Z,58.72
2022-10-05T20:47:25.022Z,60.73
2022-10-05T20:49:53.400Z,62.36
2022-10-05T20:52:20.729Z,60.64
2022-10-05T20:54:47.326Z,61.20
2022-10-05T20:57:14.082Z,61.75
2022-10-05T20:59:40.796Z,61.43
2022-10-05T21:02:07.431Z,61.01
2022-10-05T21:04:41.643Z,61.18
2022-10-05T21:07:08.702Z,60.77
2022-10-05T21:09:38.336Z,59.95
2022-10-05T21:12:05.280Z,59.01
2022-10-05T21:14:34.377Z,60.05
2022-10-05T21:17:02.035Z,60.82
2022-10-05T21:19:29.556Z,59.33
2022-10-05T21:21:59.530Z,59.88
2022-10-05T21:24:26.346Z,59.48
2022-10-05T21:26:56.838Z,60.04
2022-10-05T21:29:23.438Z,59.79
2022-10-05T21:31:50.130Z,59.69
2022-10-05T21:34:16.856Z,60.66
2022-10-05T21:36:43.415Z,61.35
2022-10-05T21:39:10.044Z,60.45
2022-10-05T21:41:36.666Z,60.55
2022-10-05T21:44:04.143Z,59.81
2022-10-05T21:46:31.635Z,59.83
2022-10-05T21:48:58.254Z,60.55
2022-10-05T21:51:26.318Z,60.14
2022-10-05T21:53:59.451Z,59.79
2022-10-05T21:56:31.234Z,59.41
2022-10-05T21:58:59.281Z,59.86
2022-10-05T22:01:25.993Z,59.06
2022-10-05T22:03:52.653Z,59.68
2022-10-05T22:06:19.272Z,60.52
2022-10-05T22:08:46.097Z,60.50
2022-10-05T22:11:17.946Z,59.89
2022-10-05T22:13:47.814Z,59.54
2022-10-05T22:16:16.533Z,59.69
2022-10-05T22:18:43.585Z,59.79
2022-10-05T22:21:12.404Z,61.40
2022-10-05T22:23:40.810Z,61.34
2022-10-05T22:26:09.290Z,60.74
2022-10-05T22:28:37.221Z,59.97
2022-10-05T22:31:06.550Z,60.33
2022-10-05T22:33:33.329Z,60.66
2022-10-05T22:36:00.601Z,60.00
2022-10-05T22:38:28.068Z,60.39
2022-10-05T22:40:54.780Z,60.57
2022-10-05T22:43:21.414Z,60.27
2022-10-05T22:45:48.127Z,62.00
2022-10-05T22:48:15.771Z,62.28
2022-10-05T22:50:46.519Z,61.12
2022-10-05T22:53:13.947Z,61.01
2022-10-05T22:55:40.865Z,60.82
2022-10-05T22:58:07.461Z,60.79
2022-10-05T23:00:56.357Z,60.37
2022-10-05T23:03:20.738Z,60.11
2022-10-05T23:05:47.322Z,60.18
2022-10-05T23:08:13.884Z,61.09
2022-10-05T23:10:40.476Z,60.62
2022-10-05T23:13:08.764Z,60.60
2022-10-05T23:15:35.912Z,61.19
2022-10-05T23:18:02.462Z,61.44
2022-10-05T23:20:29.175Z,61.47
2022-10-05T23:22:55.730Z,62.13
2022-10-05T23:25:22.351Z,61.97
2022-10-05T23:27:49.235Z,61.36
2022-10-05T23:30:15.846Z,62.26
2022-10-05T23:32:44.323Z,61.41
2022-10-05T23:35:12.826Z,61.07
2022-10-05T23:37:44.286Z,60.61
2022-10-05T23:40:14.224Z,60.99
2022-10-05T23:42:41.584Z,61.40
2022-10-05T23:45:10.337Z,60.76
2022-10-05T23:47:37.960Z,61.09
2022-10-05T23:50:07.056Z,61.22
2022-10-05T23:52:34.665Z,61.27
2022-10-05T23:55:05.475Z,61.86
2022-10-05T23:57:32.338Z,61.29
2022-10-05T23:59:58.998Z,61.31
